sensor_id;sensor_type;location;lat;lon;timestamp;P1;durP1;ratioP1;P2;durP2;ratioP2
25988;SDS011;13778;48.236;9.894;2022-10-31T00:00:56;14.30;;;10.65;;
25988;SDS011;13778;48.236;9.894;2022-10-31T00:03:47;15.10;;;11.13;;
25988;SDS011;13778;48.236;9.894;2022-10-31T00:06:39;18.15;;;13.27;;
25988;SDS011;13778;48.236;9.894;2022-10-31T00:09:29;22.05;;;13.77;;
25988;SDS011;13778;48.236;9.894;2022-10-31T00:12:20;21.80;;;14.38;;
25988;SDS011;13778;48.236;9.894;2022-10-31T00:15:10;25.25;;;15.27;;
25988;SDS011;13778;48.236;9.894;2022-10-31T00:18:01;19.98;;;12.88;;
25988;SDS011;13778;48.236;9.894;2022-10-31T00:20:57;23.98;;;14.32;;
25988;SDS011;13778;48.236;9.894;2022-10-31T00:23:49;22.52;;;13.57;;
25988;SDS011;13778;48.236;9.894;2022-10-31T00:29:30;21.85;;;13.63;;
25988;SDS011;13778;48.236;9.894;2022-10-31T00:32:20;21.70;;;13.77;;
25988;SDS011;13778;48.236;9.894;2022-10-31T00:35:11;24.00;;;14.52;;
25988;SDS011;13778;48.236;9.894;2022-10-31T00:38:02;18.35;;;13.60;;
25988;SDS011;13778;48.236;9.894;2022-10-31T00:40:54;19.30;;;13.07;;
25988;SDS011;13778;48.236;9.894;2022-10-31T00:43:44;16.75;;;12.65;;
25988;SDS011;13778;48.236;9.894;2022-10-31T00:46:35;21.27;;;13.13;;
25988;SDS011;13778;48.236;9.894;2022-10-31T00:49:25;22.60;;;13.43;;
25988;SDS011;13778;48.236;9.894;2022-10-31T00:52:16;21.23;;;12.80;;
25988;SDS011;13778;48.236;9.894;2022-10-31T00:55:07;20.83;;;12.95;;
25988;SDS011;13778;48.236;9.894;2022-10-31T00:57:58;21.67;;;13.18;;
25988;SDS011;13778;48.236;9.894;2022-10-31T01:03:44;19.13;;;13.63;;
25988;SDS011;13778;48.236;9.894;2022-10-31T01:06:34;18.73;;;11.93;;
25988;SDS011;13778;48.236;9.894;2022-10-31T01:09:25;17.55;;;11.00;;
25988;SDS011;13778;48.236;9.894;2022-10-31T01:12:15;14.15;;;11.00;;
25988;SDS011;13778;48.236;9.894;2022-10-31T01:15:08;14.88;;;10.20;;
25988;SDS011;13778;48.236;9.894;2022-10-31T01:17:58;18.58;;;10.27;;
25988;SDS011;13778;48.236;9.894;2022-10-31T01:20:56;16.40;;;10.32;;
25988;SDS011;13778;48.236;9.894;2022-10-31T01:23:46;12.60;;;9.65;;
25988;SDS011;13778;48.236;9.894;2022-10-31T01:26:37;12.82;;;9.52;;
25988;SDS011;13778;48.236;9.894;2022-10-31T01:29:28;14.80;;;9.95;;
25988;SDS011;13778;48.236;9.894;2022-10-31T01:32:19;15.75;;;10.55;;
25988;SDS011;13778;48.236;9.894;2022-10-31T01:35:10;17.35;;;11.48;;
25988;SDS011;13778;48.236;9.894;2022-10-31T01:38:00;17.63;;;11.57;;
25988;SDS011;13778;48.236;9.894;2022-10-31T01:40:52;19.40;;;12.00;;
25988;SDS011;13778;48.236;9.894;2022-10-31T01:43:43;16.77;;;11.00;;
25988;SDS011;13778;48.236;9.894;2022-10-31T01:46:34;15.00;;;10.88;;
25988;SDS011;13778;48.236;9.894;2022-10-31T01:49:29;16.23;;;9.75;;
25988;SDS011;13778;48.236;9.894;2022-10-31T01:52:23;14.10;;;9.93;;
25988;SDS011;13778;48.236;9.894;2022-10-31T01:55:15;11.27;;;8.88;;
25988;SDS011;13778;48.236;9.894;2022-10-31T01:58:08;9.93;;;8.07;;
25988;SDS011;13778;48.236;9.894;2022-10-31T02:01:00;12.85;;;9.00;;
25988;SDS011;13778;48.236;9.894;2022-10-31T02:03:51;12.07;;;8.15;;
25988;SDS011;13778;48.236;9.894;2022-10-31T02:06:46;9.57;;;7.25;;
25988;SDS011;13778;48.236;9.894;2022-10-31T02:09:37;10.07;;;6.80;;
25988;SDS011;13778;48.236;9.894;2022-10-31T02:12:28;12.43;;;6.05;;
25988;SDS011;13778;48.236;9.894;2022-10-31T02:15:19;32.70;;;8.85;;
25988;SDS011;13778;48.236;9.894;2022-10-31T02:18:09;22.30;;;8.93;;
25988;SDS011;13778;48.236;9.894;2022-10-31T02:21:02;17.38;;;8.38;;
25988;SDS011;13778;48.236;9.894;2022-10-31T02:27:07;19.13;;;10.30;;
25988;SDS011;13778;48.236;9.894;2022-10-31T02:30:02;24.40;;;11.18;;
25988;SDS011;13778;48.236;9.894;2022-10-31T02:32:57;26.35;;;11.48;;
25988;SDS011;13778;48.236;9.894;2022-10-31T02:35:52;33.53;;;12.98;;
25988;SDS011;13778;48.236;9.894;2022-10-31T02:38:50;27.75;;;12.75;;
25988;SDS011;13778;48.236;9.894;2022-10-31T02:41:44;31.45;;;12.60;;
25988;SDS011;13778;48.236;9.894;2022-10-31T02:44:36;27.30;;;12.68;;
25988;SDS011;13778;48.236;9.894;2022-10-31T02:47:29;38.90;;;13.80;;
25988;SDS011;13778;48.236;9.894;2022-10-31T02:50:23;36.25;;;13.98;;
25988;SDS011;13778;48.236;9.894;2022-10-31T02:53:17;47.25;;;14.38;;
25988;SDS011;13778;48.236;9.894;2022-10-31T02:56:08;44.80;;;14.85;;
25988;SDS011;13778;48.236;9.894;2022-10-31T02:59:01;36.05;;;13.32;;
25988;SDS011;13778;48.236;9.894;2022-10-31T03:08:15;60.70;;;16.70;;
25988;SDS011;13778;48.236;9.894;2022-10-31T03:11:08;53.22;;;16.33;;
25988;SDS011;13778;48.236;9.894;2022-10-31T03:14:00;31.92;;;13.82;;
25988;SDS011;13778;48.236;9.894;2022-10-31T03:16:54;71.95;;;17.00;;
25988;SDS011;13778;48.236;9.894;2022-10-31T03:19:48;50.33;;;14.25;;
25988;SDS011;13778;48.236;9.894;2022-10-31T03:22:39;40.33;;;12.98;;
25988;SDS011;13778;48.236;9.894;2022-10-31T03:25:33;48.90;;;12.98;;
25988;SDS011;13778;48.236;9.894;2022-10-31T03:28:26;48.67;;;13.07;;
25988;SDS011;13778;48.236;9.894;2022-10-31T03:31:19;21.85;;;11.77;;
25988;SDS011;13778;48.236;9.894;2022-10-31T03:34:13;34.92;;;12.63;;
25988;SDS011;13778;48.236;9.894;2022-10-31T03:37:04;70.70;;;15.03;;
25988;SDS011;13778;48.236;9.894;2022-10-31T03:39:56;87.43;;;15.57;;
25988;SDS011;13778;48.236;9.894;2022-10-31T03:42:51;80.97;;;15.95;;
25988;SDS011;13778;48.236;9.894;2022-10-31T03:45:44;88.85;;;14.68;;
25988;SDS011;13778;48.236;9.894;2022-10-31T03:48:35;134.68;;;15.38;;
25988;SDS011;13778;48.236;9.894;2022-10-31T03:51:26;94.15;;;16.35;;
25988;SDS011;13778;48.236;9.894;2022-10-31T03:54:20;153.23;;;17.05;;
25988;SDS011;13778;48.236;9.894;2022-10-31T03:57:14;86.30;;;16.27;;
25988;SDS011;13778;48.236;9.894;2022-10-31T04:00:10;70.70;;;15.23;;
25988;SDS011;13778;48.236;9.894;2022-10-31T04:03:03;54.40;;;13.48;;
25988;SDS011;13778;48.236;9.894;2022-10-31T04:05:56;52.58;;;14.45;;
25988;SDS011;13778;48.236;9.894;2022-10-31T04:08:49;65.55;;;14.52;;
25988;SDS011;13778;48.236;9.894;2022-10-31T04:14:31;53.60;;;15.07;;
25988;SDS011;13778;48.236;9.894;2022-10-31T04:17:24;56.33;;;14.77;;
25988;SDS011;13778;48.236;9.894;2022-10-31T04:20:17;40.90;;;14.50;;
25988;SDS011;13778;48.236;9.894;2022-10-31T04:23:10;46.88;;;15.27;;
25988;SDS011;13778;48.236;9.894;2022-10-31T04:26:02;39.05;;;14.23;;
25988;SDS011;13778;48.236;9.894;2022-10-31T04:28:53;45.40;;;14.60;;
25988;SDS011;13778;48.236;9.894;2022-10-31T04:31:43;50.83;;;14.88;;
25988;SDS011;13778;48.236;9.894;2022-10-31T04:34:35;68.18;;;16.58;;
25988;SDS011;13778;48.236;9.894;2022-10-31T04:37:25;60.28;;;15.50;;
25988;SDS011;13778;48.236;9.894;2022-10-31T04:40:16;49.72;;;16.45;;
25988;SDS011;13778;48.236;9.894;2022-10-31T04:43:07;93.30;;;16.25;;
25988;SDS011;13778;48.236;9.894;2022-10-31T04:45:57;101.65;;;17.33;;
25988;SDS011;13778;48.236;9.894;2022-10-31T04:48:48;78.70;;;15.43;;
25988;SDS011;13778;48.236;9.894;2022-10-31T04:51:40;42.38;;;14.10;;
25988;SDS011;13778;48.236;9.894;2022-10-31T04:57:20;60.22;;;13.93;;
25988;SDS011;13778;48.236;9.894;2022-10-31T05:00:12;65.95;;;13.52;;
25988;SDS011;13778;48.236;9.894;2022-10-31T05:03:03;50.58;;;12.98;;
25988;SDS011;13778;48.236;9.894;2022-10-31T05:05:54;14.18;;;11.48;;
25988;SDS011;13778;48.236;9.894;2022-10-31T05:08:46;16.35;;;11.85;;
25988;SDS011;13778;48.236;9.894;2022-10-31T05:14:26;12.02;;;10.73;;
25988;SDS011;13778;48.236;9.894;2022-10-31T05:17:17;14.55;;;10.93;;
25988;SDS011;13778;48.236;9.894;2022-10-31T05:20:07;30.65;;;12.88;;
25988;SDS011;13778;48.236;9.894;2022-10-31T05:22:58;37.00;;;12.77;;
25988;SDS011;13778;48.236;9.894;2022-10-31T05:25:50;65.35;;;16.15;;
25988;SDS011;13778;48.236;9.894;2022-10-31T05:28:40;52.42;;;13.77;;
25988;SDS011;13778;48.236;9.894;2022-10-31T05:31:31;28.38;;;12.77;;
25988;SDS011;13778;48.236;9.894;2022-10-31T05:34:21;47.78;;;14.80;;
25988;SDS011;13778;48.236;9.894;2022-10-31T05:37:12;40.92;;;14.07;;
25988;SDS011;13778;48.236;9.894;2022-10-31T05:40:02;39.67;;;13.70;;
25988;SDS011;13778;48.236;9.894;2022-10-31T05:42:54;44.60;;;18.15;;
25988;SDS011;13778;48.236;9.894;2022-10-31T05:45:45;55.90;;;21.30;;
25988;SDS011;13778;48.236;9.894;2022-10-31T05:48:36;68.53;;;24.60;;
25988;SDS011;13778;48.236;9.894;2022-10-31T05:51:26;64.70;;;21.63;;
25988;SDS011;13778;48.236;9.894;2022-10-31T05:54:17;76.07;;;23.20;;
25988;SDS011;13778;48.236;9.894;2022-10-31T05:57:07;61.00;;;19.52;;
25988;SDS011;13778;48.236;9.894;2022-10-31T05:59:59;52.85;;;16.48;;
25988;SDS011;13778;48.236;9.894;2022-10-31T06:02:49;34.67;;;13.82;;
25988;SDS011;13778;48.236;9.894;2022-10-31T06:05:47;51.55;;;13.77;;
25988;SDS011;13778;48.236;9.894;2022-10-31T06:08:37;42.75;;;13.43;;
25988;SDS011;13778;48.236;9.894;2022-10-31T06:11:28;58.90;;;15.05;;
25988;SDS011;13778;48.236;9.894;2022-10-31T06:14:18;68.97;;;14.10;;
25988;SDS011;13778;48.236;9.894;2022-10-31T06:17:10;60.05;;;14.05;;
25988;SDS011;13778;48.236;9.894;2022-10-31T06:20:01;73.03;;;14.18;;
25988;SDS011;13778;48.236;9.894;2022-10-31T06:22:51;52.17;;;13.45;;
25988;SDS011;13778;48.236;9.894;2022-10-31T06:25:42;30.98;;;13.45;;
25988;SDS011;13778;48.236;9.894;2022-10-31T06:28:32;21.92;;;12.65;;
25988;SDS011;13778;48.236;9.894;2022-10-31T06:31:22;26.05;;;12.45;;
25988;SDS011;13778;48.236;9.894;2022-10-31T06:34:14;24.85;;;12.90;;
25988;SDS011;13778;48.236;9.894;2022-10-31T06:39:55;22.88;;;13.07;;
25988;SDS011;13778;48.236;9.894;2022-10-31T06:42:46;26.83;;;12.75;;
25988;SDS011;13778;48.236;9.894;2022-10-31T06:45:36;39.33;;;14.13;;
25988;SDS011;13778;48.236;9.894;2022-10-31T06:48:27;40.78;;;12.43;;
25988;SDS011;13778;48.236;9.894;2022-10-31T06:51:18;32.30;;;12.63;;
25988;SDS011;13778;48.236;9.894;2022-10-31T06:54:09;23.30;;;12.75;;
25988;SDS011;13778;48.236;9.894;2022-10-31T06:56:59;45.40;;;13.23;;
25988;SDS011;13778;48.236;9.894;2022-10-31T06:59:50;41.95;;;12.80;;
25988;SDS011;13778;48.236;9.894;2022-10-31T07:02:40;19.55;;;12.20;;
25988;SDS011;13778;48.236;9.894;2022-10-31T07:05:31;16.17;;;12.85;;
25988;SDS011;13778;48.236;9.894;2022-10-31T07:08:23;14.88;;;12.38;;
25988;SDS011;13778;48.236;9.894;2022-10-31T07:14:03;17.27;;;11.23;;
25988;SDS011;13778;48.236;9.894;2022-10-31T07:16:54;15.10;;;10.70;;
25988;SDS011;13778;48.236;9.894;2022-10-31T07:19:44;13.38;;;10.43;;
25988;SDS011;13778;48.236;9.894;2022-10-31T07:22:35;13.50;;;10.27;;
25988;SDS011;13778;48.236;9.894;2022-10-31T07:25:27;12.80;;;9.85;;
25988;SDS011;13778;48.236;9.894;2022-10-31T07:28:17;11.93;;;10.02;;
25988;SDS011;13778;48.236;9.894;2022-10-31T07:31:08;11.70;;;10.10;;
25988;SDS011;13778;48.236;9.894;2022-10-31T07:33:58;12.18;;;9.05;;
25988;SDS011;13778;48.236;9.894;2022-10-31T07:36:50;12.98;;;9.60;;
25988;SDS011;13778;48.236;9.894;2022-10-31T07:39:41;11.73;;;8.90;;
25988;SDS011;13778;48.236;9.894;2022-10-31T07:42:35;13.95;;;9.18;;
25988;SDS011;13778;48.236;9.894;2022-10-31T07:45:26;10.23;;;9.07;;
25988;SDS011;13778;48.236;9.894;2022-10-31T07:48:16;15.35;;;9.70;;
25988;SDS011;13778;48.236;9.894;2022-10-31T07:51:07;13.90;;;9.23;;
25988;SDS011;13778;48.236;9.894;2022-10-31T07:53:57;13.25;;;8.43;;
25988;SDS011;13778;48.236;9.894;2022-10-31T07:56:48;15.13;;;9.27;;
25988;SDS011;13778;48.236;9.894;2022-10-31T07:59:40;14.57;;;9.65;;
25988;SDS011;13778;48.236;9.894;2022-10-31T08:02:30;16.02;;;10.02;;
25988;SDS011;13778;48.236;9.894;2022-10-31T08:05:21;13.52;;;9.45;;
25988;SDS011;13778;48.236;9.894;2022-10-31T08:08:12;12.25;;;9.05;;
25988;SDS011;13778;48.236;9.894;2022-10-31T08:11:02;9.52;;;8.10;;
25988;SDS011;13778;48.236;9.894;2022-10-31T08:13:53;9.85;;;7.72;;
25988;SDS011;13778;48.236;9.894;2022-10-31T08:16:45;14.45;;;7.93;;
25988;SDS011;13778;48.236;9.894;2022-10-31T08:19:35;8.80;;;7.88;;
25988;SDS011;13778;48.236;9.894;2022-10-31T08:22:26;10.95;;;7.82;;
25988;SDS011;13778;48.236;9.894;2022-10-31T08:25:16;25.73;;;14.38;;
25988;SDS011;13778;48.236;9.894;2022-10-31T08:28:08;31.42;;;17.80;;
25988;SDS011;13778;48.236;9.894;2022-10-31T08:30:58;21.77;;;13.63;;
25988;SDS011;13778;48.236;9.894;2022-10-31T08:33:51;17.00;;;12.85;;
25988;SDS011;13778;48.236;9.894;2022-10-31T08:36:42;15.98;;;11.32;;
25988;SDS011;13778;48.236;9.894;2022-10-31T08:39:34;13.27;;;10.40;;
25988;SDS011;13778;48.236;9.894;2022-10-31T08:42:24;13.32;;;10.43;;
25988;SDS011;13778;48.236;9.894;2022-10-31T08:45:15;14.82;;;12.02;;
25988;SDS011;13778;48.236;9.894;2022-10-31T08:48:06;14.50;;;10.50;;
25988;SDS011;13778;48.236;9.894;2022-10-31T08:50:58;15.33;;;10.43;;
25988;SDS011;13778;48.236;9.894;2022-10-31T08:53:49;16.58;;;9.73;;
25988;SDS011;13778;48.236;9.894;2022-10-31T08:56:39;14.95;;;9.25;;
25988;SDS011;13778;48.236;9.894;2022-10-31T08:59:30;13.70;;;9.93;;
25988;SDS011;13778;48.236;9.894;2022-10-31T09:02:20;16.25;;;9.18;;
25988;SDS011;13778;48.236;9.894;2022-10-31T09:05:11;13.70;;;8.63;;
25988;SDS011;13778;48.236;9.894;2022-10-31T09:08:03;20.73;;;9.45;;
25988;SDS011;13778;48.236;9.894;2022-10-31T09:10:55;14.10;;;10.10;;
25988;SDS011;13778;48.236;9.894;2022-10-31T09:13:46;13.45;;;10.27;;
25988;SDS011;13778;48.236;9.894;2022-10-31T09:16:37;16.50;;;10.35;;
25988;SDS011;13778;48.236;9.894;2022-10-31T09:19:27;13.73;;;10.23;;
25988;SDS011;13778;48.236;9.894;2022-10-31T09:22:18;19.00;;;11.25;;
25988;SDS011;13778;48.236;9.894;2022-10-31T09:25:09;15.40;;;10.27;;
25988;SDS011;13778;48.236;9.894;2022-10-31T09:28:00;14.50;;;9.88;;
25988;SDS011;13778;48.236;9.894;2022-10-31T09:30:52;13.60;;;9.02;;
25988;SDS011;13778;48.236;9.894;2022-10-31T09:33:42;13.07;;;9.18;;
25988;SDS011;13778;48.236;9.894;2022-10-31T09:36:33;20.70;;;9.00;;
25988;SDS011;13778;48.236;9.894;2022-10-31T09:39:23;16.40;;;8.93;;
25988;SDS011;13778;48.236;9.894;2022-10-31T09:42:22;15.88;;;9.25;;
25988;SDS011;13778;48.236;9.894;2022-10-31T09:45:15;9.57;;;8.57;;
25988;SDS011;13778;48.236;9.894;2022-10-31T09:48:17;13.60;;;8.70;;
25988;SDS011;13778;48.236;9.894;2022-10-31T09:51:12;13.80;;;8.07;;
25988;SDS011;13778;48.236;9.894;2022-10-31T09:54:05;11.27;;;9.23;;
25988;SDS011;13778;48.236;9.894;2022-10-31T09:56:57;13.35;;;8.65;;
25988;SDS011;13778;48.236;9.894;2022-10-31T09:59:50;15.98;;;10.68;;
25988;SDS011;13778;48.236;9.894;2022-10-31T10:02:42;15.20;;;10.15;;
25988;SDS011;13778;48.236;9.894;2022-10-31T10:05:36;15.07;;;12.05;;
25988;SDS011;13778;48.236;9.894;2022-10-31T10:08:27;22.75;;;12.55;;
25988;SDS011;13778;48.236;9.894;2022-10-31T10:11:32;18.25;;;12.57;;
25988;SDS011;13778;48.236;9.894;2022-10-31T10:14:32;15.85;;;13.07;;
25988;SDS011;13778;48.236;9.894;2022-10-31T10:17:29;21.70;;;13.80;;
25988;SDS011;13778;48.236;9.894;2022-10-31T10:20:24;19.75;;;14.15;;
25988;SDS011;13778;48.236;9.894;2022-10-31T10:23:23;23.35;;;13.98;;
25988;SDS011;13778;48.236;9.894;2022-10-31T10:26:18;20.60;;;13.55;;
25988;SDS011;13778;48.236;9.894;2022-10-31T10:29:14;24.67;;;13.53;;
25988;SDS011;13778;48.236;9.894;2022-10-31T10:32:09;28.40;;;14.50;;
25988;SDS011;13778;48.236;9.894;2022-10-31T10:35:04;19.23;;;14.77;;
25988;SDS011;13778;48.236;9.894;2022-10-31T10:38:01;26.40;;;17.02;;
25988;SDS011;13778;48.236;9.894;2022-10-31T10:40:52;25.83;;;15.35;;
25988;SDS011;13778;48.236;9.894;2022-10-31T10:43:43;31.17;;;15.50;;
25988;SDS011;13778;48.236;9.894;2022-10-31T10:46:44;28.35;;;16.70;;
25988;SDS011;13778;48.236;9.894;2022-10-31T10:49:56;28.60;;;15.90;;
25988;SDS011;13778;48.236;9.894;2022-10-31T10:52:49;26.67;;;16.25;;
25988;SDS011;13778;48.236;9.894;2022-10-31T10:55:43;29.83;;;16.92;;
25988;SDS011;13778;48.236;9.894;2022-10-31T10:58:36;28.52;;;17.80;;
25988;SDS011;13778;48.236;9.894;2022-10-31T11:01:27;27.30;;;16.85;;
25988;SDS011;13778;48.236;9.894;2022-10-31T11:04:24;25.15;;;15.27;;
25988;SDS011;13778;48.236;9.894;2022-10-31T11:07:15;20.08;;;14.35;;
25988;SDS011;13778;48.236;9.894;2022-10-31T11:10:11;20.05;;;14.50;;
25988;SDS011;13778;48.236;9.894;2022-10-31T11:13:05;19.65;;;13.90;;
25988;SDS011;13778;48.236;9.894;2022-10-31T11:15:57;21.60;;;14.93;;
25988;SDS011;13778;48.236;9.894;2022-10-31T11:18:48;23.27;;;15.25;;
25988;SDS011;13778;48.236;9.894;2022-10-31T11:21:39;20.95;;;13.57;;
25988;SDS011;13778;48.236;9.894;2022-10-31T11:24:39;22.60;;;13.20;;
25988;SDS011;13778;48.236;9.894;2022-10-31T11:27:31;19.38;;;13.63;;
25988;SDS011;13778;48.236;9.894;2022-10-31T11:30:22;19.65;;;12.98;;
25988;SDS011;13778;48.236;9.894;2022-10-31T11:33:14;22.92;;;12.65;;
25988;SDS011;13778;48.236;9.894;2022-10-31T11:36:14;21.63;;;13.32;;
25988;SDS011;13778;48.236;9.894;2022-10-31T11:39:12;23.45;;;13.13;;
25988;SDS011;13778;48.236;9.894;2022-10-31T11:42:03;20.38;;;13.18;;
25988;SDS011;13778;48.236;9.894;2022-10-31T11:44:55;16.85;;;10.95;;
25988;SDS011;13778;48.236;9.894;2022-10-31T11:47:46;19.77;;;12.88;;
25988;SDS011;13778;48.236;9.894;2022-10-31T11:50:39;24.10;;;13.63;;
25988;SDS011;13778;48.236;9.894;2022-10-31T11:53:31;22.42;;;12.48;;
25988;SDS011;13778;48.236;9.894;2022-10-31T11:56:22;22.05;;;14.00;;
25988;SDS011;13778;48.236;9.894;2022-10-31T11:59:18;18.85;;;11.80;;
25988;SDS011;13778;48.236;9.894;2022-10-31T12:02:17;25.95;;;13.98;;
25988;SDS011;13778;48.236;9.894;2022-10-31T12:05:10;16.92;;;12.32;;
25988;SDS011;13778;48.236;9.894;2022-10-31T12:08:01;25.60;;;14.98;;
25988;SDS011;13778;48.236;9.894;2022-10-31T12:10:54;17.95;;;12.98;;
25988;SDS011;13778;48.236;9.894;2022-10-31T12:13:52;27.70;;;14.68;;
25988;SDS011;13778;48.236;9.894;2022-10-31T12:16:48;26.83;;;13.70;;
25988;SDS011;13778;48.236;9.894;2022-10-31T12:19:42;21.25;;;13.27;;
25988;SDS011;13778;48.236;9.894;2022-10-31T12:22:35;21.05;;;14.55;;
25988;SDS011;13778;48.236;9.894;2022-10-31T12:25:34;24.38;;;15.55;;
25988;SDS011;13778;48.236;9.894;2022-10-31T12:31:39;23.02;;;14.95;;
25988;SDS011;13778;48.236;9.894;2022-10-31T12:34:47;27.40;;;15.40;;
25988;SDS011;13778;48.236;9.894;2022-10-31T12:37:45;23.40;;;15.43;;
25988;SDS011;13778;48.236;9.894;2022-10-31T12:40:45;19.50;;;15.25;;
25988;SDS011;13778;48.236;9.894;2022-10-31T12:43:42;25.65;;;14.32;;
25988;SDS011;13778;48.236;9.894;2022-10-31T12:46:41;22.35;;;14.90;;
25988;SDS011;13778;48.236;9.894;2022-10-31T12:49:48;30.20;;;16.00;;
25988;SDS011;13778;48.236;9.894;2022-10-31T12:52:44;22.23;;;15.00;;
25988;SDS011;13778;48.236;9.894;2022-10-31T12:55:41;23.42;;;14.65;;
25988;SDS011;13778;48.236;9.894;2022-10-31T12:58:36;25.35;;;16.15;;
25988;SDS011;13778;48.236;9.894;2022-10-31T13:01:29;26.25;;;16.05;;
25988;SDS011;13778;48.236;9.894;2022-10-31T13:04:30;30.17;;;17.40;;
25988;SDS011;13778;48.236;9.894;2022-10-31T13:07:27;22.67;;;16.02;;
25988;SDS011;13778;48.236;9.894;2022-10-31T13:10:19;23.00;;;16.27;;
25988;SDS011;13778;48.236;9.894;2022-10-31T13:13:12;28.58;;;17.27;;
25988;SDS011;13778;48.236;9.894;2022-10-31T13:16:04;24.58;;;17.27;;
25988;SDS011;13778;48.236;9.894;2022-10-31T13:18:58;25.40;;;16.23;;
25988;SDS011;13778;48.236;9.894;2022-10-31T13:21:53;25.77;;;15.88;;
25988;SDS011;13778;48.236;9.894;2022-10-31T13:24:53;24.75;;;17.95;;
25988;SDS011;13778;48.236;9.894;2022-10-31T13:27:47;26.38;;;17.20;;
25988;SDS011;13778;48.236;9.894;2022-10-31T13:30:40;28.20;;;17.10;;
25988;SDS011;13778;48.236;9.894;2022-10-31T13:33:33;25.40;;;17.58;;
25988;SDS011;13778;48.236;9.894;2022-10-31T13:36:25;23.58;;;16.88;;
25988;SDS011;13778;48.236;9.894;2022-10-31T13:39:20;23.50;;;16.52;;
25988;SDS011;13778;48.236;9.894;2022-10-31T13:42:17;24.83;;;17.38;;
25988;SDS011;13778;48.236;9.894;2022-10-31T13:45:13;23.45;;;17.92;;
25988;SDS011;13778;48.236;9.894;2022-10-31T13:48:18;30.38;;;18.73;;
25988;SDS011;13778;48.236;9.894;2022-10-31T13:51:09;32.47;;;18.20;;
25988;SDS011;13778;48.236;9.894;2022-10-31T13:54:19;31.95;;;19.33;;
25988;SDS011;13778;48.236;9.894;2022-10-31T13:57:16;26.13;;;18.88;;
25988;SDS011;13778;48.236;9.894;2022-10-31T14:00:21;27.35;;;17.80;;
25988;SDS011;13778;48.236;9.894;2022-10-31T14:03:16;31.92;;;19.13;;
25988;SDS011;13778;48.236;9.894;2022-10-31T14:06:08;30.23;;;18.80;;
25988;SDS011;13778;48.236;9.894;2022-10-31T14:08:59;26.80;;;18.42;;
25988;SDS011;13778;48.236;9.894;2022-10-31T14:11:49;33.85;;;17.63;;
25988;SDS011;13778;48.236;9.894;2022-10-31T14:14:46;30.70;;;17.27;;
25988;SDS011;13778;48.236;9.894;2022-10-31T14:17:39;25.42;;;17.35;;
25988;SDS011;13778;48.236;9.894;2022-10-31T14:20:38;28.98;;;18.00;;
25988;SDS011;13778;48.236;9.894;2022-10-31T14:23:35;29.75;;;19.83;;
25988;SDS011;13778;48.236;9.894;2022-10-31T14:26:33;26.08;;;17.75;;
25988;SDS011;13778;48.236;9.894;2022-10-31T14:29:25;26.85;;;17.45;;
25988;SDS011;13778;48.236;9.894;2022-10-31T14:35:12;23.88;;;15.38;;
25988;SDS011;13778;48.236;9.894;2022-10-31T14:38:05;28.13;;;17.15;;
25988;SDS011;13778;48.236;9.894;2022-10-31T14:41:13;27.50;;;17.40;;
25988;SDS011;13778;48.236;9.894;2022-10-31T14:47:16;30.23;;;16.85;;
25988;SDS011;13778;48.236;9.894;2022-10-31T14:50:25;20.38;;;16.90;;
25988;SDS011;13778;48.236;9.894;2022-10-31T14:53:20;24.13;;;15.80;;
25988;SDS011;13778;48.236;9.894;2022-10-31T14:56:13;27.40;;;15.75;;
25988;SDS011;13778;48.236;9.894;2022-10-31T14:59:08;29.20;;;16.08;;
25988;SDS011;13778;48.236;9.894;2022-10-31T15:01:59;24.80;;;15.85;;
25988;SDS011;13778;48.236;9.894;2022-10-31T15:04:51;27.98;;;16.33;;
25988;SDS011;13778;48.236;9.894;2022-10-31T15:07:50;25.50;;;14.45;;
25988;SDS011;13778;48.236;9.894;2022-10-31T15:10:44;23.85;;;16.25;;
25988;SDS011;13778;48.236;9.894;2022-10-31T15:13:34;26.73;;;15.70;;
25988;SDS011;13778;48.236;9.894;2022-10-31T15:16:31;24.63;;;15.98;;
25988;SDS011;13778;48.236;9.894;2022-10-31T15:19:23;27.98;;;17.15;;
25988;SDS011;13778;48.236;9.894;2022-10-31T15:22:14;26.27;;;16.02;;
25988;SDS011;13778;48.236;9.894;2022-10-31T15:25:10;27.88;;;19.05;;
25988;SDS011;13778;48.236;9.894;2022-10-31T15:28:12;31.05;;;17.75;;
25988;SDS011;13778;48.236;9.894;2022-10-31T15:31:02;29.05;;;18.00;;
25988;SDS011;13778;48.236;9.894;2022-10-31T15:33:53;26.65;;;17.48;;
25988;SDS011;13778;48.236;9.894;2022-10-31T15:36:47;31.20;;;17.83;;
25988;SDS011;13778;48.236;9.894;2022-10-31T15:39:38;30.17;;;18.33;;
25988;SDS011;13778;48.236;9.894;2022-10-31T15:42:32;32.50;;;18.27;;
25988;SDS011;13778;48.236;9.894;2022-10-31T15:45:24;24.80;;;17.75;;
25988;SDS011;13778;48.236;9.894;2022-10-31T15:51:06;27.85;;;18.88;;
25988;SDS011;13778;48.236;9.894;2022-10-31T15:53:56;35.08;;;19.95;;
25988;SDS011;13778;48.236;9.894;2022-10-31T15:56:48;28.15;;;18.98;;
25988;SDS011;13778;48.236;9.894;2022-10-31T15:59:41;33.75;;;19.35;;
25988;SDS011;13778;48.236;9.894;2022-10-31T16:02:33;23.33;;;19.92;;
25988;SDS011;13778;48.236;9.894;2022-10-31T16:05:23;29.83;;;19.63;;
25988;SDS011;13778;48.236;9.894;2022-10-31T16:08:24;37.17;;;18.88;;
25988;SDS011;13778;48.236;9.894;2022-10-31T16:11:15;33.53;;;18.23;;
25988;SDS011;13778;48.236;9.894;2022-10-31T16:14:13;28.10;;;18.20;;
25988;SDS011;13778;48.236;9.894;2022-10-31T16:17:10;29.63;;;20.27;;
25988;SDS011;13778;48.236;9.894;2022-10-31T16:20:02;27.88;;;20.23;;
25988;SDS011;13778;48.236;9.894;2022-10-31T16:22:54;29.77;;;21.83;;
25988;SDS011;13778;48.236;9.894;2022-10-31T16:25:47;31.80;;;19.77;;
25988;SDS011;13778;48.236;9.894;2022-10-31T16:28:38;27.73;;;20.40;;
25988;SDS011;13778;48.236;9.894;2022-10-31T16:31:29;33.80;;;20.38;;
25988;SDS011;13778;48.236;9.894;2022-10-31T16:34:22;26.50;;;18.42;;
25988;SDS011;13778;48.236;9.894;2022-10-31T16:37:13;29.10;;;19.90;;
25988;SDS011;13778;48.236;9.894;2022-10-31T16:40:03;29.05;;;20.00;;
25988;SDS011;13778;48.236;9.894;2022-10-31T16:42:55;35.67;;;22.17;;
25988;SDS011;13778;48.236;9.894;2022-10-31T16:48:36;41.70;;;26.45;;
25988;SDS011;13778;48.236;9.894;2022-10-31T16:51:28;36.70;;;24.70;;
25988;SDS011;13778;48.236;9.894;2022-10-31T16:54:18;43.42;;;27.17;;
25988;SDS011;13778;48.236;9.894;2022-10-31T16:57:12;36.43;;;25.70;;
25988;SDS011;13778;48.236;9.894;2022-10-31T17:00:03;45.25;;;27.13;;
25988;SDS011;13778;48.236;9.894;2022-10-31T17:02:55;38.42;;;24.88;;
25988;SDS011;13778;48.236;9.894;2022-10-31T17:05:46;41.25;;;25.75;;
25988;SDS011;13778;48.236;9.894;2022-10-31T17:08:38;40.85;;;25.63;;
25988;SDS011;13778;48.236;9.894;2022-10-31T17:11:28;40.95;;;27.15;;
25988;SDS011;13778;48.236;9.894;2022-10-31T17:14:19;62.42;;;40.60;;
25988;SDS011;13778;48.236;9.894;2022-10-31T17:17:10;58.00;;;38.25;;
25988;SDS011;13778;48.236;9.894;2022-10-31T17:20:00;48.40;;;35.70;;
25988;SDS011;13778;48.236;9.894;2022-10-31T17:22:51;56.80;;;38.25;;
25988;SDS011;13778;48.236;9.894;2022-10-31T17:25:42;42.50;;;29.85;;
25988;SDS011;13778;48.236;9.894;2022-10-31T17:28:33;41.40;;;29.52;;
25988;SDS011;13778;48.236;9.894;2022-10-31T17:31:26;40.10;;;27.27;;
25988;SDS011;13778;48.236;9.894;2022-10-31T17:34:17;38.45;;;26.05;;
25988;SDS011;13778;48.236;9.894;2022-10-31T17:37:08;43.38;;;29.90;;